sensor_id;sensor_type;location;lat;lon;timestamp;pressure;altitude;pressure_sealevel;temperature;humidity
34979;BME280;21185;50.978;13.720;2022-09-11T00:00:47;98026.97;;;17.39;70.87
34979;BME280;21185;50.978;13.720;2022-09-11T00:05:50;98030.38;;;17.39;70.62
34979;BME280;21185;50.978;13.720;2022-09-11T00:10:52;98027.38;;;17.36;70.94
34979;BME280;21185;50.978;13.720;2022-09-11T00:15:54;98039.50;;;17.30;70.91
34979;BME280;21185;50.978;13.720;2022-09-11T00:20:57;98036.50;;;17.27;70.86
34979;BME280;21185;50.978;13.720;2022-09-11T00:26:01;98023.00;;;17.23;71.10
34979;BME280;21185;50.978;13.720;2022-09-11T00:31:06;98029.47;;;17.21;71.12
34979;BME280;21185;50.978;13.720;2022-09-11T00:36:14;98031.94;;;17.15;71.17
34979;BME280;21185;50.978;13.720;2022-09-11T00:41:21;98036.38;;;17.15;71.17
34979;BME280;21185;50.978;13.720;2022-09-11T00:46:43;98030.16;;;17.09;70.98
34979;BME280;21185;50.978;13.720;2022-09-11T00:51:49;98033.19;;;17.06;71.14
34979;BME280;21185;50.978;13.720;2022-09-11T00:56:57;98028.38;;;17.03;71.04
34979;BME280;21185;50.978;13.720;2022-09-11T01:02:01;98023.75;;;16.99;71.34
34979;BME280;21185;50.978;13.720;2022-09-11T01:07:03;98022.56;;;16.95;71.32
34979;BME280;21185;50.978;13.720;2022-09-11T01:23:52;98013.91;;;16.88;71.41
34979;BME280;21185;50.978;13.720;2022-09-11T01:29:01;98008.50;;;16.82;71.39
34979;BME280;21185;50.978;13.720;2022-09-11T01:39:17;98021.22;;;16.79;71.54
34979;BME280;21185;50.978;13.720;2022-09-11T01:44:50;98016.97;;;16.78;71.76
34979;BME280;21185;50.978;13.720;2022-09-11T01:50:01;98018.19;;;16.75;71.64
34979;BME280;21185;50.978;13.720;2022-09-11T01:55:35;98006.13;;;16.74;71.58
34979;BME280;21185;50.978;13.720;2022-09-11T02:00:42;98025.88;;;16.70;71.80
34979;BME280;21185;50.978;13.720;2022-09-11T02:05:55;98021.84;;;16.68;71.76
34979;BME280;21185;50.978;13.720;2022-09-11T02:11:07;98017.84;;;16.65;71.71
34979;BME280;21185;50.978;13.720;2022-09-11T02:16:20;98018.81;;;16.64;71.66
34979;BME280;21185;50.978;13.720;2022-09-11T02:21:28;98023.47;;;16.62;71.73
34979;BME280;21185;50.978;13.720;2022-09-11T02:26:37;98021.25;;;16.59;71.80
34979;BME280;21185;50.978;13.720;2022-09-11T02:31:41;98020.06;;;16.55;71.79
34979;BME280;21185;50.978;13.720;2022-09-11T02:52:48;98018.06;;;16.44;71.89
34979;BME280;21185;50.978;13.720;2022-09-11T03:03:08;98018.88;;;16.38;72.20
34979;BME280;21185;50.978;13.720;2022-09-11T03:08:12;98020.91;;;16.36;72.23
34979;BME280;21185;50.978;13.720;2022-09-11T03:13:15;98022.94;;;16.34;72.05
34979;BME280;21185;50.978;13.720;2022-09-11T03:18:19;98016.28;;;16.31;72.12
34979;BME280;21185;50.978;13.720;2022-09-11T03:23:21;98023.34;;;16.31;72.14
34979;BME280;21185;50.978;13.720;2022-09-11T03:28:23;98023.75;;;16.28;72.25
34979;BME280;21185;50.978;13.720;2022-09-11T03:33:26;98027.38;;;16.27;72.19
34979;BME280;21185;50.978;13.720;2022-09-11T03:38:28;98025.75;;;16.26;72.16
34979;BME280;21185;50.978;13.720;2022-09-11T03:43:31;98033.00;;;16.24;72.41
34979;BME280;21185;50.978;13.720;2022-09-11T03:48:37;98045.31;;;16.23;72.28
34979;BME280;21185;50.978;13.720;2022-09-11T03:53:40;98049.72;;;16.23;72.34
34979;BME280;21185;50.978;13.720;2022-09-11T03:58:44;98049.94;;;16.21;72.48
34979;BME280;21185;50.978;13.720;2022-09-11T04:03:45;98050.13;;;16.19;72.31
34979;BME280;21185;50.978;13.720;2022-09-11T04:08:59;98051.16;;;16.18;72.52
34979;BME280;21185;50.978;13.720;2022-09-11T04:14:01;98057.38;;;16.17;72.36
34979;BME280;21185;50.978;13.720;2022-09-11T04:19:04;98056.78;;;16.15;72.60
34979;BME280;21185;50.978;13.720;2022-09-11T04:24:09;98066.84;;;16.12;72.77
34979;BME280;21185;50.978;13.720;2022-09-11T04:29:11;98062.03;;;16.09;72.66
34979;BME280;21185;50.978;13.720;2022-09-11T04:34:13;98068.47;;;16.06;72.60
34979;BME280;21185;50.978;13.720;2022-09-11T04:39:15;98064.44;;;16.04;72.81
34979;BME280;21185;50.978;13.720;2022-09-11T04:44:19;98072.50;;;16.02;72.88
34979;BME280;21185;50.978;13.720;2022-09-11T04:49:21;98065.44;;;16.03;72.87
34979;BME280;21185;50.978;13.720;2022-09-11T04:54:27;98066.06;;;16.05;73.09
34979;BME280;21185;50.978;13.720;2022-09-11T04:59:29;98063.84;;;16.08;73.11
34979;BME280;21185;50.978;13.720;2022-09-11T05:04:38;98066.84;;;16.12;73.00
34979;BME280;21185;50.978;13.720;2022-09-11T05:09:41;98070.47;;;16.17;73.20
34979;BME280;21185;50.978;13.720;2022-09-11T05:14:44;98068.88;;;16.23;73.12
34979;BME280;21185;50.978;13.720;2022-09-11T05:19:46;98078.31;;;16.31;73.14
34979;BME280;21185;50.978;13.720;2022-09-11T05:24:48;98095.84;;;16.37;73.31
34979;BME280;21185;50.978;13.720;2022-09-11T05:29:50;98097.03;;;16.41;73.47
34979;BME280;21185;50.978;13.720;2022-09-11T05:34:53;98101.88;;;16.44;73.53
34979;BME280;21185;50.978;13.720;2022-09-11T05:39:55;98101.88;;;16.44;73.52
34979;BME280;21185;50.978;13.720;2022-09-11T05:44:58;98110.53;;;16.44;73.86
34979;BME280;21185;50.978;13.720;2022-09-11T05:50:01;98115.97;;;16.43;74.04
34979;BME280;21185;50.978;13.720;2022-09-11T05:55:04;98120.59;;;16.41;74.13
34979;BME280;21185;50.978;13.720;2022-09-11T06:00:07;98130.88;;;16.42;74.21
34979;BME280;21185;50.978;13.720;2022-09-11T06:05:15;98134.91;;;16.45;74.19
34979;BME280;21185;50.978;13.720;2022-09-11T06:10:17;98134.09;;;16.44;74.12
34979;BME280;21185;50.978;13.720;2022-09-11T06:15:20;98144.97;;;16.48;74.32
34979;BME280;21185;50.978;13.720;2022-09-11T06:20:42;98147.41;;;16.49;74.34
34979;BME280;21185;50.978;13.720;2022-09-11T06:25:51;98154.84;;;16.52;74.61
34979;BME280;21185;50.978;13.720;2022-09-11T06:30:55;98161.91;;;16.59;74.60
34979;BME280;21185;50.978;13.720;2022-09-11T06:35:58;98168.38;;;16.69;74.78
34979;BME280;21185;50.978;13.720;2022-09-11T06:41:02;98159.09;;;16.73;74.63
34979;BME280;21185;50.978;13.720;2022-09-11T06:51:18;98165.75;;;16.69;74.82
34979;BME280;21185;50.978;13.720;2022-09-11T06:56:25;98171.38;;;16.73;75.02
34979;BME280;21185;50.978;13.720;2022-09-11T07:01:27;98168.34;;;16.76;75.02
34979;BME280;21185;50.978;13.720;2022-09-11T07:06:34;98176.22;;;16.76;75.02
34979;BME280;21185;50.978;13.720;2022-09-11T07:11:36;98181.47;;;16.76;75.21
34979;BME280;21185;50.978;13.720;2022-09-11T07:16:39;98176.00;;;16.77;75.24
34979;BME280;21185;50.978;13.720;2022-09-11T07:21:45;98191.31;;;16.80;75.42
34979;BME280;21185;50.978;13.720;2022-09-11T07:26:47;98191.72;;;16.84;75.33
34979;BME280;21185;50.978;13.720;2022-09-11T07:31:56;98196.75;;;16.86;75.65
34979;BME280;21185;50.978;13.720;2022-09-11T07:37:00;98190.09;;;16.90;75.47
34979;BME280;21185;50.978;13.720;2022-09-11T07:42:02;98199.56;;;16.91;75.46
34979;BME280;21185;50.978;13.720;2022-09-11T07:47:06;98195.34;;;16.96;75.47
34979;BME280;21185;50.978;13.720;2022-09-11T07:52:17;98193.72;;;17.02;75.49
34979;BME280;21185;50.978;13.720;2022-09-11T07:57:40;98198.53;;;17.05;75.64
34979;BME280;21185;50.978;13.720;2022-09-11T08:02:46;98195.47;;;17.21;75.83
34979;BME280;21185;50.978;13.720;2022-09-11T08:07:51;98204.91;;;17.35;75.79
34979;BME280;21185;50.978;13.720;2022-09-11T08:12:54;98212.78;;;17.35;75.63
34979;BME280;21185;50.978;13.720;2022-09-11T08:18:03;98213.38;;;17.37;75.91
34979;BME280;21185;50.978;13.720;2022-09-11T08:23:05;98218.16;;;17.54;75.83
34979;BME280;21185;50.978;13.720;2022-09-11T08:28:09;98227.84;;;17.66;75.88
34979;BME280;21185;50.978;13.720;2022-09-11T08:33:12;98231.25;;;17.67;75.60
34979;BME280;21185;50.978;13.720;2022-09-11T08:38:15;98236.69;;;17.72;75.43
34979;BME280;21185;50.978;13.720;2022-09-11T08:43:26;98234.69;;;17.67;75.77
34979;BME280;21185;50.978;13.720;2022-09-11T08:53:59;98251.31;;;17.41;76.11
34979;BME280;21185;50.978;13.720;2022-09-11T09:09:38;98258.56;;;17.46;76.35
34979;BME280;21185;50.978;13.720;2022-09-11T09:20:10;98270.66;;;17.40;76.57
34979;BME280;21185;50.978;13.720;2022-09-11T09:25:20;98275.91;;;17.40;76.47
34979;BME280;21185;50.978;13.720;2022-09-11T09:30:33;98277.94;;;17.38;76.30
34979;BME280;21185;50.978;13.720;2022-09-11T09:35:43;98276.53;;;17.36;76.71
34979;BME280;21185;50.978;13.720;2022-09-11T09:51:35;98277.09;;;17.58;76.70
34979;BME280;21185;50.978;13.720;2022-09-11T09:56:38;98281.53;;;17.57;77.01
34979;BME280;21185;50.978;13.720;2022-09-11T10:06:47;98292.44;;;17.54;77.33
34979;BME280;21185;50.978;13.720;2022-09-11T10:12:37;98304.34;;;17.57;77.24
34979;BME280;21185;50.978;13.720;2022-09-11T10:17:44;98303.31;;;17.64;77.42
34979;BME280;21185;50.978;13.720;2022-09-11T10:22:46;98308.16;;;17.61;77.15
34979;BME280;21185;50.978;13.720;2022-09-11T10:28:02;98314.22;;;17.55;77.35
34979;BME280;21185;50.978;13.720;2022-09-11T10:38:45;98327.56;;;17.46;77.32
34979;BME280;21185;50.978;13.720;2022-09-11T10:44:02;98335.66;;;17.38;77.53
34979;BME280;21185;50.978;13.720;2022-09-11T10:49:19;98330.00;;;17.35;77.42
34979;BME280;21185;50.978;13.720;2022-09-11T10:54:33;98338.47;;;17.30;77.32
34979;BME280;21185;50.978;13.720;2022-09-11T11:15:35;98361.28;;;17.16;77.10
34979;BME280;21185;50.978;13.720;2022-09-11T11:21:11;98366.53;;;17.16;77.24
34979;BME280;21185;50.978;13.720;2022-09-11T11:26:31;98373.59;;;17.16;77.19
34979;BME280;21185;50.978;13.720;2022-09-11T11:37:28;98384.06;;;17.23;76.96
34979;BME280;21185;50.978;13.720;2022-09-11T11:42:36;98387.31;;;17.18;76.85
34979;BME280;21185;50.978;13.720;2022-09-11T11:47:42;98398.19;;;17.22;77.02
34979;BME280;21185;50.978;13.720;2022-09-11T11:53:01;98390.53;;;17.20;76.79
34979;BME280;21185;50.978;13.720;2022-09-11T12:03:29;98407.66;;;17.16;76.46
34979;BME280;21185;50.978;13.720;2022-09-11T12:08:44;98405.25;;;17.08;76.46
34979;BME280;21185;50.978;13.720;2022-09-11T12:13:47;98412.28;;;17.01;76.67
34979;BME280;21185;50.978;13.720;2022-09-11T12:19:15;98421.97;;;17.00;76.65
34979;BME280;21185;50.978;13.720;2022-09-11T12:40:54;98430.44;;;16.96;76.63
34979;BME280;21185;50.978;13.720;2022-09-11T12:45:58;98432.44;;;16.94;76.59
34979;BME280;21185;50.978;13.720;2022-09-11T12:51:00;98431.44;;;16.95;76.64
34979;BME280;21185;50.978;13.720;2022-09-11T12:56:07;98435.47;;;16.97;76.75
34979;BME280;21185;50.978;13.720;2022-09-11T13:01:40;98430.03;;;16.99;76.97
34979;BME280;21185;50.978;13.720;2022-09-11T13:06:48;98423.19;;;17.04;76.76
34979;BME280;21185;50.978;13.720;2022-09-11T13:11:54;98416.53;;;17.08;76.49
34979;BME280;21185;50.978;13.720;2022-09-11T13:17:13;98411.69;;;17.12;76.91
34979;BME280;21185;50.978;13.720;2022-09-11T13:22:22;98405.66;;;17.18;76.98
34979;BME280;21185;50.978;13.720;2022-09-11T13:27:27;98401.03;;;17.33;76.71
34979;BME280;21185;50.978;13.720;2022-09-11T13:32:29;98405.66;;;17.44;76.81
34979;BME280;21185;50.978;13.720;2022-09-11T13:37:40;98393.34;;;17.52;77.14
34979;BME280;21185;50.978;13.720;2022-09-11T13:42:43;98392.53;;;17.58;77.00
34979;BME280;21185;50.978;13.720;2022-09-11T13:47:45;98385.44;;;17.65;76.72
34979;BME280;21185;50.978;13.720;2022-09-11T13:52:49;98385.88;;;17.68;76.70
34979;BME280;21185;50.978;13.720;2022-09-11T13:57:59;98383.06;;;17.70;76.45
34979;BME280;21185;50.978;13.720;2022-09-11T14:03:03;98384.44;;;17.79;76.47
34979;BME280;21185;50.978;13.720;2022-09-11T14:08:27;98380.41;;;17.76;76.15
34979;BME280;21185;50.978;13.720;2022-09-11T14:13:33;98382.84;;;17.78;76.37
34979;BME280;21185;50.978;13.720;2022-09-11T14:18:58;98380.41;;;17.83;76.06
34979;BME280;21185;50.978;13.720;2022-09-11T14:24:27;98375.53;;;17.87;76.18
34979;BME280;21185;50.978;13.720;2022-09-11T14:29:31;98376.34;;;17.87;75.66
34979;BME280;21185;50.978;13.720;2022-09-11T14:34:35;98375.94;;;17.90;75.82
34979;BME280;21185;50.978;13.720;2022-09-11T14:39:42;98370.25;;;18.00;75.44
34979;BME280;21185;50.978;13.720;2022-09-11T14:44:47;98372.25;;;18.11;75.44
34979;BME280;21185;50.978;13.720;2022-09-11T14:49:50;98369.97;;;18.21;75.29
34979;BME280;21185;50.978;13.720;2022-09-11T14:54:54;98368.94;;;18.29;75.19
34979;BME280;21185;50.978;13.720;2022-09-11T14:59:57;98367.47;;;18.39;74.91
34979;BME280;21185;50.978;13.720;2022-09-11T15:05:00;98371.72;;;18.40;74.62
34979;BME280;21185;50.978;13.720;2022-09-11T15:10:03;98363.44;;;18.37;74.60
34979;BME280;21185;50.978;13.720;2022-09-11T15:15:05;98375.38;;;18.33;74.85
34979;BME280;21185;50.978;13.720;2022-09-11T15:20:08;98370.47;;;18.43;74.55
34979;BME280;21185;50.978;13.720;2022-09-11T15:25:11;98373.25;;;18.55;73.88
34979;BME280;21185;50.978;13.720;2022-09-11T15:30:13;98374.44;;;18.59;73.73
34979;BME280;21185;50.978;13.720;2022-09-11T15:35:15;98372.44;;;18.54;73.58
34979;BME280;21185;50.978;13.720;2022-09-11T15:40:21;98372.50;;;18.41;73.64
34979;BME280;21185;50.978;13.720;2022-09-11T15:45:24;98366.69;;;18.32;73.80
34979;BME280;21185;50.978;13.720;2022-09-11T15:50:26;98367.91;;;18.30;73.57
34979;BME280;21185;50.978;13.720;2022-09-11T15:55:30;98377.81;;;18.28;73.68
34979;BME280;21185;50.978;13.720;2022-09-11T16:00:33;98379.47;;;18.22;73.68
34979;BME280;21185;50.978;13.720;2022-09-11T16:05:39;98378.09;;;18.13;73.78
34979;BME280;21185;50.978;13.720;2022-09-11T16:10:44;98386.41;;;18.03;73.78
34979;BME280;21185;50.978;13.720;2022-09-11T16:15:46;98379.56;;;17.96;73.87
34979;BME280;21185;50.978;13.720;2022-09-11T16:20:56;98381.78;;;17.92;73.68
34979;BME280;21185;50.978;13.720;2022-09-11T16:26:04;98377.97;;;17.88;73.93
34979;BME280;21185;50.978;13.720;2022-09-11T16:31:06;98370.09;;;17.88;73.81
34979;BME280;21185;50.978;13.720;2022-09-11T16:36:17;98362.22;;;17.82;73.96
34979;BME280;21185;50.978;13.720;2022-09-11T16:41:20;98367.09;;;17.78;73.85
34979;BME280;21185;50.978;13.720;2022-09-11T16:46:24;98365.09;;;17.73;73.79
34979;BME280;21185;50.978;13.720;2022-09-11T16:51:28;98366.28;;;17.71;74.17
34979;BME280;21185;50.978;13.720;2022-09-11T16:56:30;98371.97;;;17.68;74.29
34979;BME280;21185;50.978;13.720;2022-09-11T17:01:32;98373.34;;;17.64;74.18
34979;BME280;21185;50.978;13.720;2022-09-11T17:06:34;98365.06;;;17.60;74.27
34979;BME280;21185;50.978;13.720;2022-09-11T17:11:36;98368.31;;;17.56;74.55
34979;BME280;21185;50.978;13.720;2022-09-11T17:16:38;98366.09;;;17.53;74.29
34979;BME280;21185;50.978;13.720;2022-09-11T17:21:40;98367.31;;;17.50;74.45
34979;BME280;21185;50.978;13.720;2022-09-11T17:26:41;98362.88;;;17.44;74.32
34979;BME280;21185;50.978;13.720;2022-09-11T17:31:44;98368.72;;;17.39;74.25
34979;BME280;21185;50.978;13.720;2022-09-11T17:36:46;98389.53;;;17.34;74.66
34979;BME280;21185;50.978;13.720;2022-09-11T17:41:48;98389.31;;;17.29;74.44
34979;BME280;21185;50.978;13.720;2022-09-11T17:46:50;98396.19;;;17.24;74.47
34979;BME280;21185;50.978;13.720;2022-09-11T17:51:53;98396.97;;;17.17;74.52
34979;BME280;21185;50.978;13.720;2022-09-11T17:56:55;98391.13;;;17.15;74.61
34979;BME280;21185;50.978;13.720;2022-09-11T18:01:58;98391.72;;;17.11;74.62
34979;BME280;21185;50.978;13.720;2022-09-11T18:07:02;98400.59;;;17.10;74.58
34979;BME280;21185;50.978;13.720;2022-09-11T18:12:05;98398.38;;;17.07;74.74
34979;BME280;21185;50.978;13.720;2022-09-11T18:17:07;98408.25;;;17.05;74.74
34979;BME280;21185;50.978;13.720;2022-09-11T18:22:09;98417.94;;;17.04;74.60
34979;BME280;21185;50.978;13.720;2022-09-11T18:27:11;98419.16;;;17.02;74.96
34979;BME280;21185;50.978;13.720;2022-09-11T18:32:13;98421.97;;;17.00;75.05
34979;BME280;21185;50.978;13.720;2022-09-11T18:37:15;98417.53;;;17.01;74.61
34979;BME280;21185;50.978;13.720;2022-09-11T18:42:18;98418.34;;;17.01;74.84
34979;BME280;21185;50.978;13.720;2022-09-11T18:47:19;98418.16;;;17.03;74.72
34979;BME280;21185;50.978;13.720;2022-09-11T18:52:22;98423.38;;;17.03;74.96
34979;BME280;21185;50.978;13.720;2022-09-11T18:57:27;98415.53;;;17.03;74.94
34979;BME280;21185;50.978;13.720;2022-09-11T19:02:29;98422.56;;;17.02;74.91
34979;BME280;21185;50.978;13.720;2022-09-11T19:07:30;98426.41;;;17.00;74.71
34979;BME280;21185;50.978;13.720;2022-09-11T19:12:32;98455.63;;;16.97;74.81
34979;BME280;21185;50.978;13.720;2022-09-11T19:17:35;98463.69;;;16.95;74.85
34979;BME280;21185;50.978;13.720;2022-09-11T19:22:38;98460.47;;;17.00;74.78
34979;BME280;21185;50.978;13.720;2022-09-11T19:27:40;98456.47;;;17.04;74.93
34979;BME280;21185;50.978;13.720;2022-09-11T19:32:42;98458.69;;;17.07;74.75
34979;BME280;21185;50.978;13.720;2022-09-11T19:37:44;98456.06;;;17.07;74.66
34979;BME280;21185;50.978;13.720;2022-09-11T19:42:47;98451.22;;;17.04;74.62
34979;BME280;21185;50.978;13.720;2022-09-11T19:47:49;98457.25;;;16.98;74.70
34979;BME280;21185;50.978;13.720;2022-09-11T19:52:51;98456.03;;;16.94;75.01
34979;BME280;21185;50.978;13.720;2022-09-11T19:57:53;98458.44;;;16.89;75.16
34979;BME280;21185;50.978;13.720;2022-09-11T20:02:55;98469.72;;;16.89;75.14
34979;BME280;21185;50.978;13.720;2022-09-11T20:07:57;98469.94;;;16.88;75.13
34979;BME280;21185;50.978;13.720;2022-09-11T20:13:02;98468.72;;;16.83;75.14
34979;BME280;21185;50.978;13.720;2022-09-11T20:18:04;98469.09;;;16.80;75.27
34979;BME280;21185;50.978;13.720;2022-09-11T20:23:08;98466.06;;;16.77;75.57
34979;BME280;21185;50.978;13.720;2022-09-11T20:28:10;98461.03;;;16.75;75.58
34979;BME280;21185;50.978;13.720;2022-09-11T20:33:14;98468.28;;;16.73;75.81
34979;BME280;21185;50.978;13.720;2022-09-11T20:38:16;98467.03;;;16.69;75.84
34979;BME280;21185;50.978;13.720;2022-09-11T20:43:18;98460.19;;;16.68;75.78
34979;BME280;21185;50.978;13.720;2022-09-11T20:48:19;98460.19;;;16.68;75.93
34979;BME280;21185;50.978;13.720;2022-09-11T20:53:21;98455.34;;;16.65;75.85
34979;BME280;21185;50.978;13.720;2022-09-11T20:58:23;98452.09;;;16.63;76.00
34979;BME280;21185;50.978;13.720;2022-09-11T21:03:25;98456.50;;;16.63;76.22
34979;BME280;21185;50.978;13.720;2022-09-11T21:08:27;98455.72;;;16.62;76.14
34979;BME280;21185;50.978;13.720;2022-09-11T21:13:29;98455.72;;;16.62;75.92
34979;BME280;21185;50.978;13.720;2022-09-11T21:18:31;98453.09;;;16.62;76.05
34979;BME280;21185;50.978;13.720;2022-09-11T21:23:33;98456.09;;;16.59;76.30
34979;BME280;21185;50.978;13.720;2022-09-11T21:28:35;98464.97;;;16.58;76.23
34979;BME280;21185;50.978;13.720;2022-09-11T21:33:39;98468.78;;;16.56;76.42
34979;BME280;21185;50.978;13.720;2022-09-11T21:38:42;98457.88;;;16.52;76.31
34979;BME280;21185;50.978;13.720;2022-09-11T21:43:45;98458.88;;;16.51;76.56
34979;BME280;21185;50.978;13.720;2022-09-11T21:48:49;98464.13;;;16.51;76.27
34979;BME280;21185;50.978;13.720;2022-09-11T21:53:54;98456.88;;;16.53;76.66
34979;BME280;21185;50.978;13.720;2022-09-11T21:58:59;98458.88;;;16.51;76.60
34979;BME280;21185;50.978;13.720;2022-09-11T22:04:01;98452.22;;;16.48;76.52
34979;BME280;21185;50.978;13.720;2022-09-11T22:09:03;98451.63;;;16.46;76.57
34979;BME280;21185;50.978;13.720;2022-09-11T22:14:05;98448.19;;;16.46;76.57
34979;BME280;21185;50.978;13.720;2022-09-11T22:19:07;98457.03;;;16.45;76.67
34979;BME280;21185;50.978;13.720;2022-09-11T22:24:10;98452.81;;;16.44;76.71
34979;BME280;21185;50.978;13.720;2022-09-11T22:29:12;98457.25;;;16.43;76.75
34979;BME280;21185;50.978;13.720;2022-09-11T22:34:14;98451.19;;;16.43;76.93
34979;BME280;21185;50.978;13.720;2022-09-11T22:39:15;98442.72;;;16.41;76.74
34979;BME280;21185;50.978;13.720;2022-09-11T22:44:17;98449.97;;;16.39;76.63
34979;BME280;21185;50.978;13.720;2022-09-11T22:49:20;98445.72;;;16.38;76.74
34979;BME280;21185;50.978;13.720;2022-09-11T22:54:22;98446.75;;;16.37;76.84
34979;BME280;21185;50.978;13.720;2022-09-11T22:59:24;98447.16;;;16.40;76.98
34979;BME280;21185;50.978;13.720;2022-09-11T23:04:26;98439.09;;;16.42;76.97
34979;BME280;21185;50.978;13.720;2022-09-11T23:09:28;98434.06;;;16.40;76.92
34979;BME280;21185;50.978;13.720;2022-09-11T23:14:31;98439.50;;;16.39;76.90
34979;BME280;21185;50.978;13.720;2022-09-11T23:19:32;98451.97;;;16.37;76.87
34979;BME280;21185;50.978;13.720;2022-09-11T23:24:35;98450.34;;;16.36;77.08
34979;BME280;21185;50.978;13.720;2022-09-11T23:29:36;98453.97;;;16.35;76.98
34979;BME280;21185;50.978;13.720;2022-09-11T23:34:38;98458.59;;;16.33;77.06
34979;BME280;21185;50.978;13.720;2022-09-11T23:39:41;98456.38;;;16.30;77.04
34979;BME280;21185;50.978;13.720;2022-09-11T23:44:43;98448.72;;;16.28;77.33
34979;BME280;21185;50.978;13.720;2022-09-11T23:49:45;98447.72;;;16.29;77.37
34979;BME280;21185;50.978;13.720;2022-09-11T23:54:48;98446.50;;;16.32;77.31
34979;BME280;21185;50.978;13.720;2022-09-11T23:59:50;98444.31;;;16.35;77.42
